sensor_id;sensor_type;location;lat;lon;timestamp;P1;durP1;ratioP1;P2;durP2;ratioP2
5965;SDS011;3009;43.224;27.976;2022-10-20T00:01:11;10.80;;;8.03;;
5965;SDS011;3009;43.224;27.976;2022-10-20T00:03:40;10.90;;;8.57;;
5965;SDS011;3009;43.224;27.976;2022-10-20T00:06:09;12.43;;;7.80;;
5965;SDS011;3009;43.224;27.976;2022-10-20T00:08:40;17.43;;;7.97;;
5965;SDS011;3009;43.224;27.976;2022-10-20T00:11:11;16.07;;;7.80;;
5965;SDS011;3009;43.224;27.976;2022-10-20T00:13:41;8.03;;;7.13;;
5965;SDS011;3009;43.224;27.976;2022-10-20T00:16:11;12.93;;;8.10;;
5965;SDS011;3009;43.224;27.976;2022-10-20T00:18:40;12.30;;;8.23;;
5965;SDS011;3009;43.224;27.976;2022-10-20T00:21:09;10.37;;;7.93;;
5965;SDS011;3009;43.224;27.976;2022-10-20T00:23:40;8.40;;;6.77;;
5965;SDS011;3009;43.224;27.976;2022-10-20T00:26:10;8.90;;;7.30;;
5965;SDS011;3009;43.224;27.976;2022-10-20T00:28:40;8.20;;;6.67;;
5965;SDS011;3009;43.224;27.976;2022-10-20T00:31:09;11.13;;;7.67;;
5965;SDS011;3009;43.224;27.976;2022-10-20T00:33:37;8.40;;;7.50;;
5965;SDS011;3009;43.224;27.976;2022-10-20T00:36:07;8.57;;;7.67;;
5965;SDS011;3009;43.224;27.976;2022-10-20T00:38:37;8.30;;;7.30;;
5965;SDS011;3009;43.224;27.976;2022-10-20T00:41:07;18.43;;;8.10;;
5965;SDS011;3009;43.224;27.976;2022-10-20T00:43:42;10.00;;;7.97;;
5965;SDS011;3009;43.224;27.976;2022-10-20T00:46:12;9.83;;;8.20;;
5965;SDS011;3009;43.224;27.976;2022-10-20T00:48:44;10.73;;;7.40;;
5965;SDS011;3009;43.224;27.976;2022-10-20T00:51:16;13.50;;;7.63;;
5965;SDS011;3009;43.224;27.976;2022-10-20T00:53:46;9.97;;;7.10;;
5965;SDS011;3009;43.224;27.976;2022-10-20T00:56:18;11.57;;;7.57;;
5965;SDS011;3009;43.224;27.976;2022-10-20T00:58:47;11.53;;;8.17;;
5965;SDS011;3009;43.224;27.976;2022-10-20T01:01:16;9.60;;;7.00;;
5965;SDS011;3009;43.224;27.976;2022-10-20T01:03:47;13.40;;;7.63;;
5965;SDS011;3009;43.224;27.976;2022-10-20T01:06:17;8.57;;;6.73;;
5965;SDS011;3009;43.224;27.976;2022-10-20T01:08:47;10.00;;;6.27;;
5965;SDS011;3009;43.224;27.976;2022-10-20T01:11:20;10.40;;;7.00;;
5965;SDS011;3009;43.224;27.976;2022-10-20T01:14:00;7.10;;;6.00;;
5965;SDS011;3009;43.224;27.976;2022-10-20T01:16:38;8.70;;;6.67;;
5965;SDS011;3009;43.224;27.976;2022-10-20T01:19:21;8.20;;;5.87;;
5965;SDS011;3009;43.224;27.976;2022-10-20T01:22:04;13.70;;;6.57;;
5965;SDS011;3009;43.224;27.976;2022-10-20T01:24:54;15.20;;;7.30;;
5965;SDS011;3009;43.224;27.976;2022-10-20T01:27:35;8.63;;;5.67;;
5965;SDS011;3009;43.224;27.976;2022-10-20T01:30:06;11.00;;;6.13;;
5965;SDS011;3009;43.224;27.976;2022-10-20T01:32:41;10.97;;;6.50;;
5965;SDS011;3009;43.224;27.976;2022-10-20T01:35:23;12.43;;;6.53;;
5965;SDS011;3009;43.224;27.976;2022-10-20T01:38:02;7.70;;;6.90;;
5965;SDS011;3009;43.224;27.976;2022-10-20T01:40:39;8.00;;;7.10;;
5965;SDS011;3009;43.224;27.976;2022-10-20T01:43:12;18.63;;;7.53;;
5965;SDS011;3009;43.224;27.976;2022-10-20T01:45:44;12.80;;;7.53;;
5965;SDS011;3009;43.224;27.976;2022-10-20T01:48:16;8.80;;;7.47;;
5965;SDS011;3009;43.224;27.976;2022-10-20T01:50:46;10.87;;;7.70;;
5965;SDS011;3009;43.224;27.976;2022-10-20T01:53:16;13.70;;;8.57;;
5965;SDS011;3009;43.224;27.976;2022-10-20T01:55:44;14.20;;;8.50;;
5965;SDS011;3009;43.224;27.976;2022-10-20T01:58:41;12.13;;;7.80;;
5965;SDS011;3009;43.224;27.976;2022-10-20T02:01:30;36.43;;;8.30;;
5965;SDS011;3009;43.224;27.976;2022-10-20T02:04:06;10.10;;;7.80;;
5965;SDS011;3009;43.224;27.976;2022-10-20T02:06:37;11.30;;;8.13;;
5965;SDS011;3009;43.224;27.976;2022-10-20T02:09:12;13.03;;;6.63;;
5965;SDS011;3009;43.224;27.976;2022-10-20T02:11:47;9.40;;;7.43;;
5965;SDS011;3009;43.224;27.976;2022-10-20T02:14:23;7.73;;;6.60;;
5965;SDS011;3009;43.224;27.976;2022-10-20T02:16:53;7.23;;;5.63;;
5965;SDS011;3009;43.224;27.976;2022-10-20T02:19:26;8.77;;;6.07;;
5965;SDS011;3009;43.224;27.976;2022-10-20T02:21:58;6.63;;;6.00;;
5965;SDS011;3009;43.224;27.976;2022-10-20T02:24:28;7.43;;;5.20;;
5965;SDS011;3009;43.224;27.976;2022-10-20T02:27:01;6.30;;;4.90;;
5965;SDS011;3009;43.224;27.976;2022-10-20T02:29:36;6.10;;;5.50;;
5965;SDS011;3009;43.224;27.976;2022-10-20T02:32:08;5.03;;;4.63;;
5965;SDS011;3009;43.224;27.976;2022-10-20T02:34:39;14.67;;;5.40;;
5965;SDS011;3009;43.224;27.976;2022-10-20T02:37:08;5.67;;;5.17;;
5965;SDS011;3009;43.224;27.976;2022-10-20T02:39:36;10.30;;;5.77;;
5965;SDS011;3009;43.224;27.976;2022-10-20T02:42:04;7.33;;;5.10;;
5965;SDS011;3009;43.224;27.976;2022-10-20T02:44:32;4.90;;;4.50;;
5965;SDS011;3009;43.224;27.976;2022-10-20T02:47:02;5.10;;;4.60;;
5965;SDS011;3009;43.224;27.976;2022-10-20T02:49:30;6.43;;;4.67;;
5965;SDS011;3009;43.224;27.976;2022-10-20T02:51:58;5.03;;;4.63;;
5965;SDS011;3009;43.224;27.976;2022-10-20T02:54:26;9.47;;;4.73;;
5965;SDS011;3009;43.224;27.976;2022-10-20T02:56:54;10.93;;;5.70;;
5965;SDS011;3009;43.224;27.976;2022-10-20T02:59:22;5.10;;;4.70;;
5965;SDS011;3009;43.224;27.976;2022-10-20T03:01:50;5.27;;;4.60;;
5965;SDS011;3009;43.224;27.976;2022-10-20T03:04:20;5.80;;;5.30;;
5965;SDS011;3009;43.224;27.976;2022-10-20T03:06:48;6.47;;;5.20;;
5965;SDS011;3009;43.224;27.976;2022-10-20T03:09:16;5.20;;;4.70;;
5965;SDS011;3009;43.224;27.976;2022-10-20T03:11:44;4.70;;;4.30;;
5965;SDS011;3009;43.224;27.976;2022-10-20T03:14:12;6.60;;;5.07;;
5965;SDS011;3009;43.224;27.976;2022-10-20T03:16:42;6.30;;;5.10;;
5965;SDS011;3009;43.224;27.976;2022-10-20T03:19:10;5.50;;;5.00;;
5965;SDS011;3009;43.224;27.976;2022-10-20T03:21:40;9.33;;;5.37;;
5965;SDS011;3009;43.224;27.976;2022-10-20T03:24:08;6.50;;;5.77;;
5965;SDS011;3009;43.224;27.976;2022-10-20T03:26:36;6.80;;;5.60;;
5965;SDS011;3009;43.224;27.976;2022-10-20T03:29:04;9.37;;;5.03;;
5965;SDS011;3009;43.224;27.976;2022-10-20T03:31:32;5.10;;;4.70;;
5965;SDS011;3009;43.224;27.976;2022-10-20T03:34:01;6.23;;;5.73;;
5965;SDS011;3009;43.224;27.976;2022-10-20T03:36:30;7.33;;;4.83;;
5965;SDS011;3009;43.224;27.976;2022-10-20T03:38:59;6.20;;;5.60;;
5965;SDS011;3009;43.224;27.976;2022-10-20T03:41:27;7.53;;;6.47;;
5965;SDS011;3009;43.224;27.976;2022-10-20T03:43:56;7.00;;;6.17;;
5965;SDS011;3009;43.224;27.976;2022-10-20T03:46:24;5.63;;;5.20;;
5965;SDS011;3009;43.224;27.976;2022-10-20T03:48:52;7.83;;;6.40;;
5965;SDS011;3009;43.224;27.976;2022-10-20T03:51:20;6.27;;;5.77;;
5965;SDS011;3009;43.224;27.976;2022-10-20T03:53:48;10.60;;;6.13;;
5965;SDS011;3009;43.224;27.976;2022-10-20T03:56:18;9.20;;;5.20;;
5965;SDS011;3009;43.224;27.976;2022-10-20T03:58:47;6.77;;;6.07;;
5965;SDS011;3009;43.224;27.976;2022-10-20T04:01:16;6.67;;;5.37;;
5965;SDS011;3009;43.224;27.976;2022-10-20T04:03:46;6.20;;;5.60;;
5965;SDS011;3009;43.224;27.976;2022-10-20T04:06:14;8.90;;;6.07;;
5965;SDS011;3009;43.224;27.976;2022-10-20T04:08:42;10.00;;;5.90;;
5965;SDS011;3009;43.224;27.976;2022-10-20T04:11:11;6.67;;;5.87;;
5965;SDS011;3009;43.224;27.976;2022-10-20T04:13:40;5.00;;;4.50;;
5965;SDS011;3009;43.224;27.976;2022-10-20T04:16:09;5.83;;;5.23;;
5965;SDS011;3009;43.224;27.976;2022-10-20T04:18:37;8.70;;;5.93;;
5965;SDS011;3009;43.224;27.976;2022-10-20T04:21:05;6.07;;;5.53;;
5965;SDS011;3009;43.224;27.976;2022-10-20T04:23:33;7.47;;;4.40;;
5965;SDS011;3009;43.224;27.976;2022-10-20T04:26:06;8.43;;;4.80;;
5965;SDS011;3009;43.224;27.976;2022-10-20T04:28:35;5.47;;;4.53;;
5965;SDS011;3009;43.224;27.976;2022-10-20T04:31:04;5.03;;;4.63;;
5965;SDS011;3009;43.224;27.976;2022-10-20T04:33:33;12.97;;;5.30;;
5965;SDS011;3009;43.224;27.976;2022-10-20T04:36:02;5.57;;;5.10;;
5965;SDS011;3009;43.224;27.976;2022-10-20T04:38:32;7.00;;;5.23;;
5965;SDS011;3009;43.224;27.976;2022-10-20T04:41:01;8.53;;;5.47;;
5965;SDS011;3009;43.224;27.976;2022-10-20T04:43:31;5.40;;;5.00;;
5965;SDS011;3009;43.224;27.976;2022-10-20T04:46:00;7.70;;;5.30;;
5965;SDS011;3009;43.224;27.976;2022-10-20T04:48:35;5.47;;;5.07;;
5965;SDS011;3009;43.224;27.976;2022-10-20T04:51:04;7.43;;;4.70;;
5965;SDS011;3009;43.224;27.976;2022-10-20T04:53:33;6.03;;;4.80;;
5965;SDS011;3009;43.224;27.976;2022-10-20T04:56:02;7.70;;;4.00;;
5965;SDS011;3009;43.224;27.976;2022-10-20T04:58:32;9.67;;;4.60;;
5965;SDS011;3009;43.224;27.976;2022-10-20T05:01:01;4.23;;;3.93;;
5965;SDS011;3009;43.224;27.976;2022-10-20T05:03:30;7.37;;;4.00;;
5965;SDS011;3009;43.224;27.976;2022-10-20T05:06:10;4.80;;;3.87;;
5965;SDS011;3009;43.224;27.976;2022-10-20T05:08:40;10.50;;;4.67;;
5965;SDS011;3009;43.224;27.976;2022-10-20T05:11:10;3.60;;;3.30;;
5965;SDS011;3009;43.224;27.976;2022-10-20T05:13:39;18.30;;;4.40;;
5965;SDS011;3009;43.224;27.976;2022-10-20T05:16:07;5.50;;;3.90;;
5965;SDS011;3009;43.224;27.976;2022-10-20T05:18:36;4.30;;;4.00;;
5965;SDS011;3009;43.224;27.976;2022-10-20T05:21:05;4.53;;;4.23;;
5965;SDS011;3009;43.224;27.976;2022-10-20T05:23:37;3.90;;;3.57;;
5965;SDS011;3009;43.224;27.976;2022-10-20T05:26:07;3.70;;;3.50;;
5965;SDS011;3009;43.224;27.976;2022-10-20T05:28:36;3.93;;;3.63;;
5965;SDS011;3009;43.224;27.976;2022-10-20T05:31:05;4.23;;;3.83;;
5965;SDS011;3009;43.224;27.976;2022-10-20T05:33:35;6.33;;;3.67;;
5965;SDS011;3009;43.224;27.976;2022-10-20T05:36:07;4.83;;;3.27;;
5965;SDS011;3009;43.224;27.976;2022-10-20T05:38:37;10.63;;;3.10;;
5965;SDS011;3009;43.224;27.976;2022-10-20T05:41:06;5.77;;;3.33;;
5965;SDS011;3009;43.224;27.976;2022-10-20T05:43:36;3.80;;;3.43;;
5965;SDS011;3009;43.224;27.976;2022-10-20T05:46:04;3.07;;;2.87;;
5965;SDS011;3009;43.224;27.976;2022-10-20T05:48:34;3.03;;;2.83;;
5965;SDS011;3009;43.224;27.976;2022-10-20T05:51:09;3.00;;;2.80;;
5965;SDS011;3009;43.224;27.976;2022-10-20T05:53:42;3.93;;;3.20;;
5965;SDS011;3009;43.224;27.976;2022-10-20T05:56:12;3.97;;;2.87;;
5965;SDS011;3009;43.224;27.976;2022-10-20T05:58:43;3.23;;;3.00;;
5965;SDS011;3009;43.224;27.976;2022-10-20T06:01:13;3.67;;;3.00;;
5965;SDS011;3009;43.224;27.976;2022-10-20T06:03:46;3.40;;;3.13;;
5965;SDS011;3009;43.224;27.976;2022-10-20T06:06:14;3.33;;;3.03;;
5965;SDS011;3009;43.224;27.976;2022-10-20T06:08:44;3.77;;;3.00;;
5965;SDS011;3009;43.224;27.976;2022-10-20T06:11:13;4.40;;;3.23;;
5965;SDS011;3009;43.224;27.976;2022-10-20T06:13:42;5.40;;;3.10;;
5965;SDS011;3009;43.224;27.976;2022-10-20T06:16:17;3.47;;;3.17;;
5965;SDS011;3009;43.224;27.976;2022-10-20T06:18:47;3.77;;;3.10;;
5965;SDS011;3009;43.224;27.976;2022-10-20T06:21:16;3.10;;;2.97;;
5965;SDS011;3009;43.224;27.976;2022-10-20T06:23:47;2.93;;;2.73;;
5965;SDS011;3009;43.224;27.976;2022-10-20T06:26:17;3.87;;;2.87;;
5965;SDS011;3009;43.224;27.976;2022-10-20T06:28:47;3.80;;;3.07;;
5965;SDS011;3009;43.224;27.976;2022-10-20T06:31:18;9.47;;;3.47;;
5965;SDS011;3009;43.224;27.976;2022-10-20T06:33:47;3.77;;;3.20;;
5965;SDS011;3009;43.224;27.976;2022-10-20T06:36:17;2.87;;;2.73;;
5965;SDS011;3009;43.224;27.976;2022-10-20T06:38:47;2.97;;;2.70;;
5965;SDS011;3009;43.224;27.976;2022-10-20T06:41:19;6.50;;;3.03;;
5965;SDS011;3009;43.224;27.976;2022-10-20T06:43:47;3.10;;;2.93;;
5965;SDS011;3009;43.224;27.976;2022-10-20T06:46:16;3.20;;;3.00;;
5965;SDS011;3009;43.224;27.976;2022-10-20T06:48:45;3.03;;;2.80;;
5965;SDS011;3009;43.224;27.976;2022-10-20T06:51:14;6.20;;;2.63;;
5965;SDS011;3009;43.224;27.976;2022-10-20T06:53:44;3.60;;;3.20;;
5965;SDS011;3009;43.224;27.976;2022-10-20T06:56:14;2.93;;;2.73;;
5965;SDS011;3009;43.224;27.976;2022-10-20T06:58:44;4.50;;;4.20;;
5965;SDS011;3009;43.224;27.976;2022-10-20T07:01:16;5.40;;;3.30;;
5965;SDS011;3009;43.224;27.976;2022-10-20T07:03:46;3.40;;;3.10;;
5965;SDS011;3009;43.224;27.976;2022-10-20T07:06:15;3.77;;;3.10;;
5965;SDS011;3009;43.224;27.976;2022-10-20T07:08:45;3.10;;;2.90;;
5965;SDS011;3009;43.224;27.976;2022-10-20T07:11:17;4.27;;;2.87;;
5965;SDS011;3009;43.224;27.976;2022-10-20T07:13:46;3.00;;;2.90;;
5965;SDS011;3009;43.224;27.976;2022-10-20T07:16:15;8.80;;;2.77;;
5965;SDS011;3009;43.224;27.976;2022-10-20T07:18:45;14.13;;;2.87;;
5965;SDS011;3009;43.224;27.976;2022-10-20T07:21:14;2.87;;;2.33;;
5965;SDS011;3009;43.224;27.976;2022-10-20T07:23:44;8.13;;;2.97;;
5965;SDS011;3009;43.224;27.976;2022-10-20T07:26:13;5.00;;;2.97;;
5965;SDS011;3009;43.224;27.976;2022-10-20T07:28:46;3.00;;;2.70;;
5965;SDS011;3009;43.224;27.976;2022-10-20T07:31:22;3.67;;;3.37;;
5965;SDS011;3009;43.224;27.976;2022-10-20T07:33:51;2.93;;;2.60;;
5965;SDS011;3009;43.224;27.976;2022-10-20T07:36:39;2.83;;;2.63;;
5965;SDS011;3009;43.224;27.976;2022-10-20T07:39:10;8.47;;;3.20;;
5965;SDS011;3009;43.224;27.976;2022-10-20T07:41:41;3.00;;;2.90;;
5965;SDS011;3009;43.224;27.976;2022-10-20T07:44:13;3.00;;;2.70;;
5965;SDS011;3009;43.224;27.976;2022-10-20T07:46:41;5.17;;;3.17;;
5965;SDS011;3009;43.224;27.976;2022-10-20T07:49:10;6.30;;;3.17;;
5965;SDS011;3009;43.224;27.976;2022-10-20T07:51:58;3.50;;;3.30;;
5965;SDS011;3009;43.224;27.976;2022-10-20T07:54:26;7.30;;;3.27;;
5965;SDS011;3009;43.224;27.976;2022-10-20T07:56:56;3.40;;;3.23;;
5965;SDS011;3009;43.224;27.976;2022-10-20T07:59:24;3.47;;;3.20;;
5965;SDS011;3009;43.224;27.976;2022-10-20T08:01:52;2.80;;;2.60;;
5965;SDS011;3009;43.224;27.976;2022-10-20T08:04:24;3.63;;;3.00;;
5965;SDS011;3009;43.224;27.976;2022-10-20T08:06:52;2.90;;;2.70;;
5965;SDS011;3009;43.224;27.976;2022-10-20T08:09:20;3.70;;;3.40;;
5965;SDS011;3009;43.224;27.976;2022-10-20T08:11:48;3.47;;;3.20;;
5965;SDS011;3009;43.224;27.976;2022-10-20T08:14:22;3.20;;;2.50;;
5965;SDS011;3009;43.224;27.976;2022-10-20T08:16:53;3.17;;;2.90;;
5965;SDS011;3009;43.224;27.976;2022-10-20T08:19:31;2.60;;;2.43;;
5965;SDS011;3009;43.224;27.976;2022-10-20T08:22:10;3.50;;;3.20;;
5965;SDS011;3009;43.224;27.976;2022-10-20T08:24:38;2.73;;;2.57;;
5965;SDS011;3009;43.224;27.976;2022-10-20T08:27:06;4.03;;;3.63;;
5965;SDS011;3009;43.224;27.976;2022-10-20T08:29:36;14.20;;;3.27;;
5965;SDS011;3009;43.224;27.976;2022-10-20T08:32:04;4.10;;;2.67;;
5965;SDS011;3009;43.224;27.976;2022-10-20T08:34:32;3.27;;;3.07;;
5965;SDS011;3009;43.224;27.976;2022-10-20T08:37:00;3.00;;;2.80;;
5965;SDS011;3009;43.224;27.976;2022-10-20T08:39:28;2.83;;;2.63;;
5965;SDS011;3009;43.224;27.976;2022-10-20T08:41:57;2.80;;;2.60;;
5965;SDS011;3009;43.224;27.976;2022-10-20T08:44:37;2.87;;;2.77;;
5965;SDS011;3009;43.224;27.976;2022-10-20T08:47:17;3.10;;;2.90;;
5965;SDS011;3009;43.224;27.976;2022-10-20T08:49:57;5.43;;;2.50;;
5965;SDS011;3009;43.224;27.976;2022-10-20T08:52:26;3.77;;;3.57;;
5965;SDS011;3009;43.224;27.976;2022-10-20T08:54:55;2.90;;;2.70;;
5965;SDS011;3009;43.224;27.976;2022-10-20T08:57:25;6.70;;;2.87;;
5965;SDS011;3009;43.224;27.976;2022-10-20T09:00:07;2.90;;;2.80;;
5965;SDS011;3009;43.224;27.976;2022-10-20T09:02:41;12.27;;;3.33;;
5965;SDS011;3009;43.224;27.976;2022-10-20T09:05:09;2.23;;;2.13;;
5965;SDS011;3009;43.224;27.976;2022-10-20T09:07:44;2.53;;;2.43;;
5965;SDS011;3009;43.224;27.976;2022-10-20T09:10:26;2.60;;;2.40;;
5965;SDS011;3009;43.224;27.976;2022-10-20T09:13:00;2.93;;;2.70;;
5965;SDS011;3009;43.224;27.976;2022-10-20T09:15:34;3.33;;;2.77;;
5965;SDS011;3009;43.224;27.976;2022-10-20T09:18:05;2.97;;;2.63;;
5965;SDS011;3009;43.224;27.976;2022-10-20T09:20:39;3.80;;;3.20;;
5965;SDS011;3009;43.224;27.976;2022-10-20T09:23:13;2.40;;;2.30;;
5965;SDS011;3009;43.224;27.976;2022-10-20T09:26:01;2.93;;;2.50;;
5965;SDS011;3009;43.224;27.976;2022-10-20T09:28:29;2.63;;;2.43;;
5965;SDS011;3009;43.224;27.976;2022-10-20T09:31:21;3.83;;;2.50;;
5965;SDS011;3009;43.224;27.976;2022-10-20T09:33:54;3.37;;;2.87;;
5965;SDS011;3009;43.224;27.976;2022-10-20T09:36:22;2.63;;;2.43;;
5965;SDS011;3009;43.224;27.976;2022-10-20T09:38:55;3.47;;;2.60;;
5965;SDS011;3009;43.224;27.976;2022-10-20T09:41:24;4.33;;;2.50;;
5965;SDS011;3009;43.224;27.976;2022-10-20T09:43:55;5.30;;;2.67;;
5965;SDS011;3009;43.224;27.976;2022-10-20T09:46:28;6.20;;;2.60;;
5965;SDS011;3009;43.224;27.976;2022-10-20T09:48:58;7.10;;;3.07;;
5965;SDS011;3009;43.224;27.976;2022-10-20T09:51:27;2.80;;;2.60;;
5965;SDS011;3009;43.224;27.976;2022-10-20T09:53:58;4.77;;;2.97;;
5965;SDS011;3009;43.224;27.976;2022-10-20T09:56:29;2.73;;;2.53;;
5965;SDS011;3009;43.224;27.976;2022-10-20T09:59:01;3.27;;;2.57;;
5965;SDS011;3009;43.224;27.976;2022-10-20T10:01:33;3.17;;;2.30;;
5965;SDS011;3009;43.224;27.976;2022-10-20T10:04:28;16.87;;;3.27;;
5965;SDS011;3009;43.224;27.976;2022-10-20T10:06:58;2.47;;;2.27;;
5965;SDS011;3009;43.224;27.976;2022-10-20T10:09:27;2.67;;;2.57;;
5965;SDS011;3009;43.224;27.976;2022-10-20T10:12:00;4.50;;;2.20;;
5965;SDS011;3009;43.224;27.976;2022-10-20T10:14:31;9.53;;;3.13;;
5965;SDS011;3009;43.224;27.976;2022-10-20T10:17:03;8.13;;;2.57;;
5965;SDS011;3009;43.224;27.976;2022-10-20T10:19:31;5.90;;;2.43;;
5965;SDS011;3009;43.224;27.976;2022-10-20T10:22:00;5.30;;;2.57;;
5965;SDS011;3009;43.224;27.976;2022-10-20T10:24:40;4.27;;;2.90;;
5965;SDS011;3009;43.224;27.976;2022-10-20T10:27:18;3.07;;;2.57;;
5965;SDS011;3009;43.224;27.976;2022-10-20T10:29:48;13.23;;;2.73;;
5965;SDS011;3009;43.224;27.976;2022-10-20T10:32:21;3.67;;;2.73;;
5965;SDS011;3009;43.224;27.976;2022-10-20T10:35:00;6.57;;;3.17;;
5965;SDS011;3009;43.224;27.976;2022-10-20T10:37:39;10.73;;;4.10;;
5965;SDS011;3009;43.224;27.976;2022-10-20T10:40:11;2.57;;;2.43;;
5965;SDS011;3009;43.224;27.976;2022-10-20T10:42:44;6.83;;;3.43;;
5965;SDS011;3009;43.224;27.976;2022-10-20T10:45:25;12.47;;;2.57;;
5965;SDS011;3009;43.224;27.976;2022-10-20T10:51:07;8.83;;;3.03;;
5965;SDS011;3009;43.224;27.976;2022-10-20T10:53:48;4.77;;;2.50;;
5965;SDS011;3009;43.224;27.976;2022-10-20T10:56:28;4.10;;;2.83;;
5965;SDS011;3009;43.224;27.976;2022-10-20T10:59:04;9.57;;;3.27;;
5965;SDS011;3009;43.224;27.976;2022-10-20T11:04:50;13.03;;;3.50;;
5965;SDS011;3009;43.224;27.976;2022-10-20T11:07:35;4.57;;;3.17;;
5965;SDS011;3009;43.224;27.976;2022-10-20T11:10:09;3.40;;;3.10;;
5965;SDS011;3009;43.224;27.976;2022-10-20T11:12:51;9.70;;;4.17;;
5965;SDS011;3009;43.224;27.976;2022-10-20T11:15:35;5.17;;;4.67;;
5965;SDS011;3009;43.224;27.976;2022-10-20T11:18:15;6.63;;;4.30;;
5965;SDS011;3009;43.224;27.976;2022-10-20T11:21:11;5.50;;;5.10;;
5965;SDS011;3009;43.224;27.976;2022-10-20T11:26:44;6.83;;;4.80;;
5965;SDS011;3009;43.224;27.976;2022-10-20T11:29:18;5.17;;;4.23;;
5965;SDS011;3009;43.224;27.976;2022-10-20T11:31:55;5.27;;;4.73;;
5965;SDS011;3009;43.224;27.976;2022-10-20T11:34:31;5.90;;;4.60;;
5965;SDS011;3009;43.224;27.976;2022-10-20T11:37:05;6.40;;;4.90;;
5965;SDS011;3009;43.224;27.976;2022-10-20T11:39:43;7.83;;;4.13;;
5965;SDS011;3009;43.224;27.976;2022-10-20T11:42:19;7.40;;;4.13;;
5965;SDS011;3009;43.224;27.976;2022-10-20T11:44:53;10.30;;;3.87;;
5965;SDS011;3009;43.224;27.976;2022-10-20T11:47:25;8.20;;;4.80;;
5965;SDS011;3009;43.224;27.976;2022-10-20T11:49:58;6.73;;;4.70;;
5965;SDS011;3009;43.224;27.976;2022-10-20T11:52:50;5.53;;;5.00;;
5965;SDS011;3009;43.224;27.976;2022-10-20T12:02:03;4.80;;;3.70;;
5965;SDS011;3009;43.224;27.976;2022-10-20T12:05:00;10.67;;;4.47;;
5965;SDS011;3009;43.224;27.976;2022-10-20T12:07:58;4.53;;;4.10;;
5965;SDS011;3009;43.224;27.976;2022-10-20T12:10:56;8.90;;;3.80;;
5965;SDS011;3009;43.224;27.976;2022-10-20T12:13:34;3.47;;;3.07;;
5965;SDS011;3009;43.224;27.976;2022-10-20T12:16:07;6.40;;;3.90;;
5965;SDS011;3009;43.224;27.976;2022-10-20T12:18:35;3.90;;;3.20;;
5965;SDS011;3009;43.224;27.976;2022-10-20T12:21:04;11.27;;;3.30;;
5965;SDS011;3009;43.224;27.976;2022-10-20T12:23:55;6.17;;;3.30;;
5965;SDS011;3009;43.224;27.976;2022-10-20T12:29:50;2.73;;;2.60;;
5965;SDS011;3009;43.224;27.976;2022-10-20T12:32:24;4.60;;;3.40;;
5965;SDS011;3009;43.224;27.976;2022-10-20T12:35:06;8.17;;;3.03;;
5965;SDS011;3009;43.224;27.976;2022-10-20T12:38:12;3.53;;;3.20;;
5965;SDS011;3009;43.224;27.976;2022-10-20T12:40:47;14.13;;;3.43;;
5965;SDS011;3009;43.224;27.976;2022-10-20T12:43:28;9.27;;;3.40;;
5965;SDS011;3009;43.224;27.976;2022-10-20T12:46:04;3.20;;;2.80;;
5965;SDS011;3009;43.224;27.976;2022-10-20T12:48:39;8.67;;;3.27;;
5965;SDS011;3009;43.224;27.976;2022-10-20T12:51:18;4.40;;;3.53;;
5965;SDS011;3009;43.224;27.976;2022-10-20T12:53:51;3.73;;;3.30;;
5965;SDS011;3009;43.224;27.976;2022-10-20T12:56:25;7.93;;;4.80;;
5965;SDS011;3009;43.224;27.976;2022-10-20T12:59:08;12.30;;;3.30;;
5965;SDS011;3009;43.224;27.976;2022-10-20T13:08:15;3.40;;;3.20;;
5965;SDS011;3009;43.224;27.976;2022-10-20T13:10:49;3.83;;;2.90;;
5965;SDS011;3009;43.224;27.976;2022-10-20T13:13:38;5.30;;;3.90;;
5965;SDS011;3009;43.224;27.976;2022-10-20T13:16:16;8.00;;;4.27;;
5965;SDS011;3009;43.224;27.976;2022-10-20T13:18:47;3.67;;;3.30;;
5965;SDS011;3009;43.224;27.976;2022-10-20T13:21:27;3.73;;;3.10;;
5965;SDS011;3009;43.224;27.976;2022-10-20T13:24:14;5.90;;;3.40;;
5965;SDS011;3009;43.224;27.976;2022-10-20T13:26:46;5.53;;;3.13;;
5965;SDS011;3009;43.224;27.976;2022-10-20T13:29:18;25.73;;;3.80;;
5965;SDS011;3009;43.224;27.976;2022-10-20T13:31:55;7.63;;;3.13;;
5965;SDS011;3009;43.224;27.976;2022-10-20T13:34:31;6.33;;;3.33;;
5965;SDS011;3009;43.224;27.976;2022-10-20T13:37:13;6.03;;;3.40;;
5965;SDS011;3009;43.224;27.976;2022-10-20T13:39:55;5.90;;;3.40;;
5965;SDS011;3009;43.224;27.976;2022-10-20T13:42:36;3.40;;;3.20;;
5965;SDS011;3009;43.224;27.976;2022-10-20T13:45:14;3.47;;;2.67;;
5965;SDS011;3009;43.224;27.976;2022-10-20T13:47:50;7.60;;;3.60;;
5965;SDS011;3009;43.224;27.976;2022-10-20T13:50:26;8.23;;;2.77;;
5965;SDS011;3009;43.224;27.976;2022-10-20T13:52:56;4.37;;;2.77;;
5965;SDS011;3009;43.224;27.976;2022-10-20T13:55:29;3.70;;;2.70;;
5965;SDS011;3009;43.224;27.976;2022-10-20T13:58:18;17.80;;;3.63;;
5965;SDS011;3009;43.224;27.976;2022-10-20T14:00:55;7.13;;;2.97;;
5965;SDS011;3009;43.224;27.976;2022-10-20T14:03:27;5.43;;;2.97;;
5965;SDS011;3009;43.224;27.976;2022-10-20T14:05:56;2.90;;;2.70;;
5965;SDS011;3009;43.224;27.976;2022-10-20T14:08:25;3.20;;;3.10;;
5965;SDS011;3009;43.224;27.976;2022-10-20T14:10:54;2.80;;;2.70;;
5965;SDS011;3009;43.224;27.976;2022-10-20T14:13:25;4.23;;;2.90;;
5965;SDS011;3009;43.224;27.976;2022-10-20T14:15:57;4.60;;;3.17;;
5965;SDS011;3009;43.224;27.976;2022-10-20T14:18:27;8.10;;;3.00;;
5965;SDS011;3009;43.224;27.976;2022-10-20T14:20:57;3.47;;;3.17;;
5965;SDS011;3009;43.224;27.976;2022-10-20T14:23:29;9.40;;;3.50;;
5965;SDS011;3009;43.224;27.976;2022-10-20T14:26:01;3.37;;;3.17;;
5965;SDS011;3009;43.224;27.976;2022-10-20T14:28:32;6.13;;;3.93;;
5965;SDS011;3009;43.224;27.976;2022-10-20T14:31:03;9.90;;;3.50;;
5965;SDS011;3009;43.224;27.976;2022-10-20T14:33:33;10.03;;;4.30;;
5965;SDS011;3009;43.224;27.976;2022-10-20T14:36:11;7.97;;;3.60;;
5965;SDS011;3009;43.224;27.976;2022-10-20T14:38:46;5.20;;;3.63;;
5965;SDS011;3009;43.224;27.976;2022-10-20T14:41:22;17.30;;;3.10;;
5965;SDS011;3009;43.224;27.976;2022-10-20T14:43:52;4.10;;;3.20;;
5965;SDS011;3009;43.224;27.976;2022-10-20T14:46:34;16.73;;;3.73;;
5965;SDS011;3009;43.224;27.976;2022-10-20T14:49:03;5.73;;;3.30;;
5965;SDS011;3009;43.224;27.976;2022-10-20T14:51:42;4.20;;;3.53;;
5965;SDS011;3009;43.224;27.976;2022-10-20T14:54:14;5.00;;;3.77;;
5965;SDS011;3009;43.224;27.976;2022-10-20T14:56:52;5.40;;;3.97;;
5965;SDS011;3009;43.224;27.976;2022-10-20T14:59:22;6.73;;;4.00;;
5965;SDS011;3009;43.224;27.976;2022-10-20T15:01:57;6.57;;;3.30;;
5965;SDS011;3009;43.224;27.976;2022-10-20T15:04:34;5.60;;;3.83;;
5965;SDS011;3009;43.224;27.976;2022-10-20T15:07:04;7.10;;;4.10;;
5965;SDS011;3009;43.224;27.976;2022-10-20T15:09:39;4.60;;;4.13;;
5965;SDS011;3009;43.224;27.976;2022-10-20T15:12:14;4.90;;;4.17;;
5965;SDS011;3009;43.224;27.976;2022-10-20T15:14:45;7.13;;;4.33;;
5965;SDS011;3009;43.224;27.976;2022-10-20T15:17:32;4.20;;;3.90;;
5965;SDS011;3009;43.224;27.976;2022-10-20T15:22:58;4.83;;;3.93;;
5965;SDS011;3009;43.224;27.976;2022-10-20T15:25:28;4.83;;;4.10;;
5965;SDS011;3009;43.224;27.976;2022-10-20T15:27:57;5.20;;;3.93;;
5965;SDS011;3009;43.224;27.976;2022-10-20T15:30:26;4.60;;;4.30;;
5965;SDS011;3009;43.224;27.976;2022-10-20T15:32:55;7.17;;;4.10;;
5965;SDS011;3009;43.224;27.976;2022-10-20T15:35:24;4.43;;;4.03;;
5965;SDS011;3009;43.224;27.976;2022-10-20T15:37:56;24.43;;;15.30;;
5965;SDS011;3009;43.224;27.976;2022-10-20T15:40:24;7.20;;;4.70;;
5965;SDS011;3009;43.224;27.976;2022-10-20T15:42:52;9.60;;;4.50;;
5965;SDS011;3009;43.224;27.976;2022-10-20T15:45:21;8.87;;;4.20;;
5965;SDS011;3009;43.224;27.976;2022-10-20T15:47:51;5.20;;;4.70;;
5965;SDS011;3009;43.224;27.976;2022-10-20T15:50:20;8.73;;;4.93;;
5965;SDS011;3009;43.224;27.976;2022-10-20T15:52:50;5.83;;;4.20;;
5965;SDS011;3009;43.224;27.976;2022-10-20T15:55:21;4.93;;;4.53;;
5965;SDS011;3009;43.224;27.976;2022-10-20T15:57:53;5.13;;;4.73;;
5965;SDS011;3009;43.224;27.976;2022-10-20T16:00:23;6.43;;;4.80;;
5965;SDS011;3009;43.224;27.976;2022-10-20T16:02:52;4.97;;;4.40;;